createdAt,value
2018-02-04T00:02:06.711Z,17.90
2018-02-04T00:04:34.196Z,17.97
2018-02-04T00:07:01.692Z,17.83
2018-02-04T00:09:29.175Z,18.17
2018-02-04T00:11:56.663Z,18.23
2018-02-04T00:14:24.913Z,18.60
2018-02-04T00:16:52.416Z,18.23
2018-02-04T00:19:19.918Z,18.98
2018-02-04T00:21:47.412Z,17.55
2018-02-04T00:24:15.763Z,18.85
2018-02-04T00:26:43.256Z,17.15
2018-02-04T00:29:10.737Z,17.60
2018-02-04T00:31:38.219Z,16.80
2018-02-04T00:34:05.701Z,16.30
2018-02-04T00:36:33.161Z,16.92
2018-02-04T00:39:00.698Z,15.80
2018-02-04T00:41:28.942Z,15.00
2018-02-04T00:43:56.427Z,14.93
2018-02-04T00:46:23.903Z,16.50
2018-02-04T00:48:51.393Z,16.23
2018-02-04T00:51:18.871Z,14.50
2018-02-04T00:53:47.130Z,14.23
2018-02-04T00:56:14.619Z,13.70
2018-02-04T00:58:42.155Z,15.05
2018-02-04T01:01:10.420Z,14.40
2018-02-04T01:03:38.654Z,13.93
2018-02-04T01:06:06.144Z,15.27
2018-02-04T01:08:33.648Z,14.73
2018-02-04T01:11:01.189Z,14.20
2018-02-04T01:13:29.451Z,13.32
2018-02-04T01:15:56.926Z,13.60
2018-02-04T01:18:24.427Z,13.10
2018-02-04T01:20:51.897Z,12.27
2018-02-04T01:23:20.127Z,12.60
2018-02-04T01:25:48.400Z,12.80
2018-02-04T01:28:16.271Z,13.47
2018-02-04T01:30:43.781Z,12.40
2018-02-04T01:33:12.020Z,13.50
2018-02-04T01:35:40.274Z,12.95
2018-02-04T01:38:07.741Z,12.33
2018-02-04T01:40:35.365Z,12.23
2018-02-04T01:43:02.871Z,12.03
2018-02-04T01:45:31.094Z,13.60
2018-02-04T01:48:07.343Z,12.50
2018-02-04T01:50:35.685Z,13.18
2018-02-04T01:53:03.185Z,12.20
2018-02-04T01:55:30.705Z,12.75
2018-02-04T01:57:58.194Z,14.13
2018-02-04T02:00:25.666Z,12.60
2018-02-04T02:02:53.153Z,12.90
2018-02-04T02:05:20.623Z,12.13
2018-02-04T02:07:48.449Z,13.02
2018-02-04T02:10:16.721Z,12.40
2018-02-04T02:12:44.199Z,13.40
2018-02-04T02:15:11.809Z,13.13
2018-02-04T02:17:39.298Z,12.98
2018-02-04T02:20:06.778Z,13.60
2018-02-04T02:22:34.282Z,12.95
2018-02-04T02:25:01.937Z,13.05
2018-02-04T02:27:29.413Z,11.93
2018-02-04T02:29:57.800Z,12.95
2018-02-04T02:32:25.315Z,15.10
2018-02-04T02:34:52.814Z,13.95
2018-02-04T02:37:20.321Z,13.70
2018-02-04T02:39:47.855Z,12.80
2018-02-04T02:42:16.096Z,13.98
2018-02-04T02:44:43.616Z,12.57
2018-02-04T02:47:11.098Z,13.10
2018-02-04T02:49:38.584Z,13.07
2018-02-04T02:52:06.853Z,13.88
2018-02-04T02:54:34.330Z,12.75
2018-02-04T02:57:01.913Z,12.10
2018-02-04T02:59:29.436Z,13.88
2018-02-04T03:01:57.696Z,12.90
2018-02-04T03:04:25.199Z,11.98
2018-02-04T03:06:52.667Z,13.27
2018-02-04T03:09:21.475Z,12.10
2018-02-04T03:11:49.711Z,12.93
2018-02-04T03:14:17.964Z,13.27
2018-02-04T03:16:45.456Z,12.85
2018-02-04T03:19:13.699Z,12.18
2018-02-04T03:21:41.956Z,12.73
2018-02-04T03:24:10.216Z,12.10
2018-02-04T03:26:37.708Z,12.35
2018-02-04T03:29:05.964Z,12.98
2018-02-04T03:31:33.598Z,12.40
2018-02-04T03:34:01.079Z,12.95
2018-02-04T03:39:22.368Z,12.40
2018-02-04T03:41:49.884Z,12.18
2018-02-04T03:44:17.376Z,12.55
2018-02-04T03:46:45.633Z,12.90
2018-02-04T03:49:13.903Z,11.52
2018-02-04T03:51:42.314Z,11.93
2018-02-04T03:54:10.569Z,12.23
2018-02-04T03:56:38.806Z,10.33
2018-02-04T03:59:07.219Z,11.77
2018-02-04T04:01:35.562Z,11.50
2018-02-04T04:04:03.061Z,11.82
2018-02-04T04:06:30.672Z,13.20
2018-02-04T04:08:58.178Z,12.25
2018-02-04T04:11:26.415Z,12.40
2018-02-04T04:13:54.678Z,11.88
2018-02-04T04:16:22.967Z,11.95
2018-02-04T04:18:50.477Z,11.38
2018-02-04T04:21:17.952Z,11.73
2018-02-04T04:23:46.192Z,11.93
2018-02-04T04:26:13.846Z,13.02
2018-02-04T04:28:41.340Z,13.40
2018-02-04T04:31:09.599Z,12.88
2018-02-04T04:33:37.095Z,12.40
2018-02-04T04:36:05.348Z,12.13
2018-02-04T04:38:32.838Z,11.93
2018-02-04T04:41:00.320Z,11.60
2018-02-04T04:43:27.876Z,13.38
2018-02-04T04:45:55.456Z,12.95
2018-02-04T04:48:22.983Z,12.90
2018-02-04T04:50:50.451Z,12.07
2018-02-04T04:53:18.107Z,12.55
2018-02-04T04:55:45.597Z,12.43
2018-02-04T04:58:13.106Z,11.65
2018-02-04T05:00:40.626Z,12.25
2018-02-04T05:03:08.108Z,12.63
2018-02-04T05:05:36.446Z,12.95
2018-02-04T05:08:03.934Z,13.00
2018-02-04T05:10:31.436Z,13.93
2018-02-04T05:12:59.079Z,13.57
2018-02-04T05:15:26.555Z,14.02
2018-02-04T05:17:54.860Z,15.07
2018-02-04T05:20:22.470Z,14.57
2018-02-04T05:22:49.948Z,14.40
2018-02-04T05:25:17.450Z,16.15
2018-02-04T05:27:44.937Z,14.73
2018-02-04T05:30:12.521Z,15.65
2018-02-04T05:32:39.997Z,15.00
2018-02-04T05:35:08.261Z,16.40
2018-02-04T05:37:36.571Z,17.15
2018-02-04T05:40:04.804Z,16.85
2018-02-04T05:42:32.274Z,17.60
2018-02-04T05:44:59.775Z,17.40
2018-02-04T05:47:27.269Z,17.25
2018-02-04T05:49:54.750Z,16.23
2018-02-04T05:52:22.238Z,16.65
2018-02-04T05:54:49.721Z,19.05
2018-02-04T05:57:17.220Z,17.95
2018-02-04T05:59:44.712Z,16.15
2018-02-04T06:02:12.203Z,18.35
2018-02-04T06:04:39.723Z,18.33
2018-02-04T06:07:07.223Z,18.70
2018-02-04T06:09:34.713Z,17.92
2018-02-04T06:12:02.230Z,17.90
2018-02-04T06:14:29.838Z,17.00
2018-02-04T06:16:58.088Z,17.30
2018-02-04T06:19:25.625Z,18.80
2018-02-04T06:21:53.882Z,18.25
2018-02-04T06:24:21.373Z,18.58
2018-02-04T06:26:48.855Z,19.70
2018-02-04T06:29:16.364Z,17.58
2018-02-04T06:31:43.857Z,18.33
2018-02-04T06:34:11.360Z,19.02
2018-02-04T06:36:38.843Z,20.50
2018-02-04T06:39:06.374Z,21.33
2018-02-04T06:41:33.848Z,19.33
2018-02-04T06:44:02.196Z,21.02
2018-02-04T06:46:30.435Z,20.75
2018-02-04T06:48:58.706Z,19.87
2018-02-04T06:51:26.200Z,20.10
2018-02-04T06:53:53.745Z,20.40
2018-02-04T06:56:21.242Z,18.10
2018-02-04T06:58:48.777Z,19.90
2018-02-04T07:01:17.028Z,18.85
2018-02-04T07:03:45.389Z,18.00
2018-02-04T07:06:12.884Z,20.13
2018-02-04T07:08:41.137Z,21.25
2018-02-04T07:11:08.637Z,20.50
2018-02-04T07:13:36.893Z,19.67
2018-02-04T07:16:04.370Z,20.55
2018-02-04T07:18:31.889Z,20.23
2018-02-04T07:20:59.372Z,20.42
2018-02-04T07:23:27.874Z,21.47
2018-02-04T07:25:56.312Z,22.63
2018-02-04T07:28:23.820Z,23.75
2018-02-04T07:30:51.295Z,23.23
2018-02-04T07:33:18.801Z,23.00
2018-02-04T07:35:46.292Z,21.52
2018-02-04T07:38:13.780Z,24.10
2018-02-04T07:40:42.057Z,23.38
2018-02-04T07:43:09.541Z,22.83
2018-02-04T07:45:37.797Z,21.60
2018-02-04T07:48:05.414Z,21.75
2018-02-04T07:50:32.902Z,23.77
2018-02-04T07:53:00.593Z,22.23
2018-02-04T07:55:28.118Z,20.65
2018-02-04T07:57:56.480Z,20.10
2018-02-04T08:00:23.984Z,19.73
2018-02-04T08:02:52.231Z,20.00
2018-02-04T08:05:19.743Z,22.17
2018-02-04T08:07:47.225Z,20.23
2018-02-04T08:10:15.502Z,21.73
2018-02-04T08:12:43.014Z,20.70
2018-02-04T08:15:10.491Z,21.37
2018-02-04T08:17:37.994Z,21.00
2018-02-04T08:20:05.479Z,20.30
2018-02-04T08:22:33.744Z,19.53
2018-02-04T08:25:01.238Z,21.10
2018-02-04T08:27:28.730Z,20.83
2018-02-04T08:29:56.243Z,20.93
2018-02-04T08:32:24.501Z,20.20
2018-02-04T08:34:51.980Z,21.97
2018-02-04T08:37:19.478Z,22.93
2018-02-04T08:39:46.956Z,21.47
2018-02-04T08:42:14.427Z,21.63
2018-02-04T08:44:41.930Z,22.47
2018-02-04T08:47:09.411Z,21.57
2018-02-04T08:49:36.944Z,23.70
2018-02-04T08:52:04.463Z,22.10
2018-02-04T08:54:31.949Z,21.30
2018-02-04T08:56:59.455Z,21.73
2018-02-04T08:59:27.074Z,22.10
2018-02-04T09:01:54.619Z,23.90
2018-02-04T09:04:22.885Z,21.17
2018-02-04T09:06:50.571Z,21.33
2018-02-04T09:09:18.050Z,19.20
2018-02-04T09:11:46.305Z,20.60
2018-02-04T09:14:14.078Z,20.37
2018-02-04T09:16:41.565Z,18.63
2018-02-04T09:19:09.049Z,19.50
2018-02-04T09:21:36.560Z,16.37
2018-02-04T09:24:04.095Z,15.20
2018-02-04T09:26:31.596Z,16.60
2018-02-04T09:29:00.055Z,16.80
2018-02-04T09:31:27.564Z,17.30
2018-02-04T09:33:55.945Z,19.80
2018-02-04T09:36:23.748Z,17.77
2018-02-04T09:38:51.195Z,17.80
2018-02-04T09:41:18.672Z,17.03
2018-02-04T09:43:46.206Z,18.07
2018-02-04T09:46:14.510Z,18.90
2018-02-04T09:48:42.877Z,19.20
2018-02-04T09:51:10.388Z,21.47
2018-02-04T09:53:37.851Z,20.50
2018-02-04T09:56:05.450Z,22.83
2018-02-04T09:58:32.991Z,21.97
2018-02-04T10:01:01.209Z,21.97
2018-02-04T10:03:28.824Z,21.23
2018-02-04T10:05:56.384Z,24.07
2018-02-04T10:08:23.863Z,21.40
2018-02-04T10:10:51.381Z,21.00
2018-02-04T10:13:18.877Z,19.83
2018-02-04T10:15:47.116Z,20.00
2018-02-04T10:18:14.619Z,21.07
2018-02-04T10:20:42.117Z,21.07
2018-02-04T10:23:09.603Z,20.20
2018-02-04T10:25:37.336Z,21.47
2018-02-04T10:28:04.838Z,18.93
2018-02-04T10:30:32.341Z,18.77
2018-02-04T10:32:59.820Z,18.83
2018-02-04T10:35:27.425Z,18.80
2018-02-04T10:37:55.012Z,19.33
2018-02-04T10:40:22.590Z,19.70
2018-02-04T10:42:50.075Z,19.77
2018-02-04T10:45:18.323Z,18.47
2018-02-04T10:47:46.729Z,19.90
2018-02-04T10:53:17.856Z,18.23
2018-02-04T10:55:46.105Z,18.50
2018-02-04T10:58:13.585Z,17.30
2018-02-04T11:00:41.084Z,17.90
2018-02-04T11:03:08.552Z,17.97
2018-02-04T11:05:36.040Z,17.80
2018-02-04T11:08:03.609Z,15.70
2018-02-04T11:10:31.075Z,17.30
2018-02-04T11:12:58.552Z,15.87
2018-02-04T11:15:26.801Z,17.20
2018-02-04T11:17:54.349Z,14.83
2018-02-04T11:20:21.814Z,13.43
2018-02-04T11:22:50.181Z,17.13
2018-02-04T11:25:17.646Z,16.40
2018-02-04T11:27:45.113Z,16.40
2018-02-04T11:30:12.618Z,15.43
2018-02-04T11:32:40.441Z,12.33
2018-02-04T11:35:08.763Z,8.80
2018-02-04T11:37:36.385Z,10.60
2018-02-04T11:40:04.064Z,11.53
2018-02-04T11:42:31.604Z,12.20
2018-02-04T11:44:59.092Z,10.93
2018-02-04T11:47:26.601Z,8.87
2018-02-04T11:49:54.972Z,8.43
2018-02-04T11:52:22.585Z,9.40
2018-02-04T11:54:50.873Z,10.60
2018-02-04T11:57:18.354Z,10.23
2018-02-04T11:59:45.831Z,8.30
2018-02-04T12:02:13.339Z,6.90
2018-02-04T12:04:41.561Z,8.03
2018-02-04T12:07:09.035Z,6.83
2018-02-04T12:09:36.593Z,6.80
2018-02-04T12:12:04.128Z,7.00
2018-02-04T12:14:31.655Z,6.70
2018-02-04T12:16:59.121Z,8.67
2018-02-04T12:19:26.597Z,7.93
2018-02-04T12:21:54.156Z,7.90
2018-02-04T12:24:21.635Z,7.27
2018-02-04T12:26:49.112Z,9.60
2018-02-04T12:29:16.674Z,7.47
2018-02-04T12:31:44.173Z,7.93
2018-02-04T12:34:12.586Z,8.40
2018-02-04T12:36:40.825Z,9.43
2018-02-04T12:39:08.375Z,7.07
2018-02-04T12:41:35.912Z,6.50
2018-02-04T12:44:03.378Z,5.30
2018-02-04T12:46:31.638Z,4.67
2018-02-04T12:48:59.884Z,3.83
2018-02-04T12:51:27.379Z,3.97
2018-02-04T12:53:54.853Z,5.30
2018-02-04T12:56:22.358Z,5.07
2018-02-04T12:58:50.655Z,5.30
2018-02-04T13:01:18.178Z,6.50
2018-02-04T13:03:46.449Z,5.37
2018-02-04T13:06:14.117Z,6.07
2018-02-04T13:08:41.605Z,5.23
2018-02-04T13:11:09.098Z,5.43
2018-02-04T13:13:37.328Z,4.33
2018-02-04T13:16:05.638Z,5.17
2018-02-04T13:18:33.166Z,6.47
2018-02-04T13:21:00.617Z,7.40
2018-02-04T13:23:29.097Z,7.70
2018-02-04T13:25:56.633Z,7.13
2018-02-04T13:28:24.255Z,12.33
2018-02-04T13:30:51.904Z,8.80
2018-02-04T13:33:19.396Z,7.60
2018-02-04T13:35:46.886Z,7.40
2018-02-04T13:38:15.132Z,8.90
2018-02-04T13:40:43.394Z,9.60
2018-02-04T13:43:10.906Z,8.83
2018-02-04T13:45:38.427Z,9.40
2018-02-04T13:48:06.655Z,8.90
2018-02-04T13:50:34.157Z,8.77
2018-02-04T13:53:01.639Z,9.60
2018-02-04T13:55:29.249Z,10.10
2018-02-04T13:57:56.765Z,9.73
2018-02-04T14:03:02.646Z,9.10
2018-02-04T14:05:30.217Z,8.20
2018-02-04T14:07:57.688Z,10.00
2018-02-04T14:10:25.169Z,9.00
2018-02-04T14:12:52.725Z,7.60
2018-02-04T14:15:20.244Z,8.53
2018-02-04T14:17:47.739Z,8.67
2018-02-04T14:20:15.965Z,9.30
2018-02-04T14:22:44.224Z,8.60
2018-02-04T14:25:11.712Z,8.30
2018-02-04T14:27:39.189Z,8.90
2018-02-04T14:30:06.674Z,9.70
2018-02-04T14:32:35.124Z,9.00
2018-02-04T14:35:02.615Z,9.87
2018-02-04T14:37:30.221Z,10.40
2018-02-04T14:39:58.445Z,10.70
2018-02-04T14:42:25.946Z,11.00
2018-02-04T14:44:54.203Z,10.30
2018-02-04T14:47:21.678Z,9.47
2018-02-04T14:49:49.987Z,9.60
2018-02-04T14:52:17.495Z,8.90
2018-02-04T14:54:44.954Z,9.03
2018-02-04T14:57:12.419Z,9.20
2018-02-04T14:59:39.924Z,7.50
2018-02-04T15:02:07.429Z,8.90
2018-02-04T15:04:34.945Z,8.02
2018-02-04T15:07:02.490Z,8.50
2018-02-04T15:09:30.063Z,8.40
2018-02-04T15:11:57.688Z,8.07
2018-02-04T15:14:25.161Z,8.40
2018-02-04T15:16:52.667Z,8.57
2018-02-04T15:19:20.947Z,8.07
2018-02-04T15:21:48.432Z,8.25
2018-02-04T15:24:15.971Z,8.30
2018-02-04T15:26:43.524Z,9.98
2018-02-04T15:29:11.068Z,9.77
2018-02-04T15:31:38.785Z,11.00
2018-02-04T15:34:07.363Z,11.73
2018-02-04T15:36:35.033Z,11.15
2018-02-04T15:39:02.567Z,13.00
2018-02-04T15:41:30.097Z,11.52
2018-02-04T15:43:57.621Z,11.38
2018-02-04T15:46:25.150Z,13.67
2018-02-04T15:48:53.402Z,11.77
2018-02-04T15:51:20.870Z,11.02
2018-02-04T15:53:48.449Z,10.45
2018-02-04T15:56:16.005Z,9.98
2018-02-04T15:58:44.466Z,10.60
2018-02-04T16:01:12.037Z,10.48
2018-02-04T16:03:39.501Z,11.32
2018-02-04T16:06:07.014Z,10.20
2018-02-04T16:08:34.508Z,10.95
2018-02-04T16:11:01.973Z,11.45
2018-02-04T16:13:29.474Z,12.18
2018-02-04T16:15:56.984Z,13.00
2018-02-04T16:18:25.248Z,13.40
2018-02-04T16:20:52.727Z,13.95
2018-02-04T16:23:20.381Z,14.35
2018-02-04T16:25:47.929Z,12.50
2018-02-04T16:28:15.340Z,14.25
2018-02-04T16:30:43.002Z,17.52
2018-02-04T16:33:11.250Z,13.43
2018-02-04T16:35:38.745Z,13.93
2018-02-04T16:38:06.231Z,11.40
2018-02-04T16:40:33.702Z,12.90
2018-02-04T16:43:01.249Z,12.68
2018-02-04T16:45:29.528Z,11.98
2018-02-04T16:47:57.024Z,13.25
2018-02-04T16:50:25.250Z,15.27
2018-02-04T16:52:52.753Z,15.70
2018-02-04T16:55:20.260Z,14.90
2018-02-04T16:57:47.805Z,16.20
2018-02-04T17:00:15.326Z,16.75
2018-02-04T17:02:43.033Z,16.77
2018-02-04T17:05:10.502Z,15.65
2018-02-04T17:07:38.074Z,15.80
2018-02-04T17:10:05.670Z,15.52
2018-02-04T17:12:33.135Z,14.93
2018-02-04T17:15:00.618Z,15.98
2018-02-04T17:17:28.158Z,15.43
2018-02-04T17:19:56.581Z,14.98
2018-02-04T17:22:24.212Z,17.02
2018-02-04T17:24:51.696Z,14.70
2018-02-04T17:27:19.174Z,16.50
2018-02-04T17:29:46.686Z,17.65
2018-02-04T17:32:14.163Z,15.40
2018-02-04T17:34:41.762Z,14.82
2018-02-04T17:37:10.032Z,16.77
2018-02-04T17:39:37.594Z,15.60
2018-02-04T17:42:06.040Z,14.73
2018-02-04T17:44:33.506Z,14.15
2018-02-04T17:47:01.016Z,12.98
2018-02-04T17:49:28.544Z,14.30
2018-02-04T17:51:56.251Z,15.75
2018-02-04T17:54:23.765Z,16.23
2018-02-04T17:56:51.237Z,14.63
2018-02-04T17:59:18.720Z,14.80
2018-02-04T18:01:46.212Z,15.45
2018-02-04T18:04:13.677Z,14.23
2018-02-04T18:06:41.182Z,14.32
2018-02-04T18:09:08.686Z,15.70
2018-02-04T18:11:36.172Z,15.15
2018-02-04T18:14:04.519Z,14.63
2018-02-04T18:16:32.007Z,16.85
2018-02-04T18:18:59.505Z,16.33
2018-02-04T18:21:26.997Z,15.10
2018-02-04T18:23:54.470Z,16.30
2018-02-04T18:26:21.953Z,15.27
2018-02-04T18:28:50.220Z,16.20
2018-02-04T18:31:17.730Z,15.70
2018-02-04T18:33:45.274Z,17.20
2018-02-04T18:36:13.542Z,18.65
2018-02-04T18:38:41.042Z,18.75
2018-02-04T18:41:08.529Z,17.77
2018-02-04T18:43:36.867Z,19.55
2018-02-04T18:46:04.391Z,20.45
2018-02-04T18:48:31.878Z,18.98
2018-02-04T18:50:59.442Z,20.50
2018-02-04T18:53:26.951Z,19.80
2018-02-04T18:55:54.417Z,21.42
2018-02-04T18:58:22.539Z,22.20
2018-02-04T19:00:50.227Z,20.60
2018-02-04T19:03:17.779Z,22.58
2018-02-04T19:05:45.366Z,20.45
2018-02-04T19:08:13.207Z,23.23
2018-02-04T19:10:41.474Z,23.12
2018-02-04T19:13:08.962Z,21.50
2018-02-04T19:15:36.495Z,23.38
2018-02-04T19:18:04.068Z,22.33
2018-02-04T19:20:32.348Z,20.70
2018-02-04T19:23:01.348Z,21.98
2018-02-04T19:25:28.915Z,21.27
2018-02-04T19:27:56.484Z,22.00
2018-02-04T19:30:24.128Z,21.55
2018-02-04T19:32:52.371Z,23.38
2018-02-04T19:35:19.874Z,21.02
2018-02-04T19:37:49.054Z,21.62
2018-02-04T19:40:16.533Z,23.45
2018-02-04T19:42:44.095Z,23.50
2018-02-04T19:45:11.614Z,21.17
2018-02-04T19:47:39.285Z,22.98
2018-02-04T19:50:06.803Z,21.92
2018-02-04T19:52:34.277Z,22.25
2018-02-04T19:55:01.747Z,20.88
2018-02-04T19:57:29.274Z,20.80
2018-02-04T19:59:57.558Z,22.08
2018-02-04T20:02:25.096Z,23.92
2018-02-04T20:04:52.602Z,22.23
2018-02-04T20:07:20.151Z,23.38
2018-02-04T20:09:48.204Z,22.73
2018-02-04T20:12:15.741Z,24.48
2018-02-04T20:14:43.297Z,22.40
2018-02-04T20:17:11.631Z,24.02
2018-02-04T20:19:39.128Z,20.17
2018-02-04T20:22:06.622Z,22.83
2018-02-04T20:24:34.178Z,22.55
2018-02-04T20:27:01.661Z,22.62
2018-02-04T20:29:29.167Z,22.42
2018-02-04T20:31:56.811Z,22.23
2018-02-04T20:34:36.857Z,24.70
2018-02-04T20:37:04.393Z,24.67
2018-02-04T20:39:31.879Z,26.23
2018-02-04T20:42:00.147Z,27.75
2018-02-04T20:44:28.388Z,25.88
2018-02-04T20:46:55.911Z,26.48
2018-02-04T20:49:23.436Z,26.77
2018-02-04T20:51:50.945Z,27.13
2018-02-04T20:54:18.483Z,26.80
2018-02-04T20:56:46.741Z,27.90
2018-02-04T20:59:14.245Z,26.40
2018-02-04T21:01:41.855Z,29.25
2018-02-04T21:04:10.129Z,28.27
2018-02-04T21:06:37.587Z,28.60
2018-02-04T21:09:05.128Z,28.80
2018-02-04T21:11:33.430Z,29.25
2018-02-04T21:14:01.677Z,27.77
2018-02-04T21:16:29.251Z,29.80
2018-02-04T21:18:56.855Z,30.10
2018-02-04T21:21:24.360Z,28.02
2018-02-04T21:23:51.862Z,29.17
2018-02-04T21:26:20.087Z,29.15
2018-02-04T21:28:47.587Z,30.23
2018-02-04T21:31:15.062Z,30.27
2018-02-04T21:33:42.611Z,31.50
2018-02-04T21:36:10.114Z,27.35
2018-02-04T21:38:38.535Z,30.88
2018-02-04T21:41:06.060Z,31.35
2018-02-04T21:43:33.524Z,31.00
2018-02-04T21:46:01.075Z,31.92
2018-02-04T21:48:29.479Z,31.33
2018-02-04T21:50:57.014Z,29.60
2018-02-04T21:53:24.541Z,32.53
2018-02-04T21:55:52.986Z,30.58
2018-02-04T21:58:20.580Z,29.92
2018-02-04T22:00:48.107Z,29.37
2018-02-04T22:03:16.539Z,29.12
2018-02-04T22:05:44.016Z,31.62
2018-02-04T22:08:12.283Z,33.17
2018-02-04T22:10:39.747Z,27.60
2018-02-04T22:13:07.231Z,33.00
2018-02-04T22:15:34.845Z,32.20
2018-02-04T22:18:03.137Z,32.35
2018-02-04T22:20:30.792Z,29.48
2018-02-04T22:22:58.283Z,31.00
2018-02-04T22:25:25.760Z,32.13
2018-02-04T22:27:53.296Z,34.15
2018-02-04T22:30:21.792Z,33.65
2018-02-04T22:32:50.058Z,33.75
2018-02-04T22:35:17.516Z,32.35
2018-02-04T22:37:45.805Z,35.88
2018-02-04T22:40:13.360Z,34.47
2018-02-04T22:42:41.631Z,30.17
2018-02-04T22:45:09.143Z,35.13
2018-02-04T22:47:37.464Z,34.97
2018-02-04T22:50:05.934Z,35.10
2018-02-04T22:52:33.397Z,34.67
2018-02-04T22:55:00.939Z,32.33
2018-02-04T22:57:28.442Z,32.35
2018-02-04T22:59:55.928Z,33.17
2018-02-04T23:02:23.549Z,32.67
2018-02-04T23:04:51.042Z,33.42
2018-02-04T23:07:18.676Z,35.17
2018-02-04T23:09:46.140Z,33.40
2018-02-04T23:12:14.616Z,33.13
2018-02-04T23:14:42.100Z,34.35
2018-02-04T23:17:09.572Z,35.13
2018-02-04T23:19:37.130Z,34.45
2018-02-04T23:22:05.388Z,34.85
2018-02-04T23:24:33.637Z,39.95
2018-02-04T23:27:01.132Z,37.70
2018-02-04T23:29:28.615Z,34.92
2018-02-04T23:31:56.128Z,35.05
2018-02-04T23:34:24.466Z,34.72
2018-02-04T23:36:51.943Z,31.98
2018-02-04T23:39:19.475Z,34.28
2018-02-04T23:41:46.990Z,34.75
2018-02-04T23:44:14.504Z,34.67
